Pittsburgh, PA (15239)

1:10 PM EST on February 25, 2017 (GMT -0500)
O'Block Road | | Change Station

Elev 1224 ft 40.48 °N, 79.72 °W | Updated 15 seconds ago

Overcast
Overcast
47.3 °F
Feels Like 47 °F
N
1.3
Wind Variable Wind from WNW
Gusts 2.5 mph

Today
High -- | Low -- °F
--% Chance of Precip.
Yesterday
High -- | Low -- °F
Precip. -- in
Pressure 29.62 in
Visibility 10.0 miles
Clouds Mostly Cloudy 3300 ft
Overcast 4100 ft
Windchill 47 °F
Dew Point 39 °F
Humidity 72%
Rainfall 0.20 in
Snow Depth Not available.
6:58 AM 6:06 PM
Waning Crescent, 1% visible
METAR KAGC 251753Z 25017G25KT 10SM BR BKN033 OVC041 09/02 A2962 RMK AO2 RAB00E09 SLP031 P0000 60023 T00940022 10128 20078 51015
Pressure 29.62 in
Visibility 10.0 miles
Clouds Mostly Cloudy 3300 ft
Overcast 4100 ft
Windchill 47 °F
Dew Point 39 °F
Humidity 72%
Rainfall 0.20 in
Snow Depth Not available.
6:58 AM 6:06 PM
Waning Crescent, 1% visible
METAR KAGC 251753Z 25017G25KT 10SM BR BKN033 OVC041 09/02 A2962 RMK AO2 RAB00E09 SLP031 P0000 60023 T00940022 10128 20078 51015

Get Your Daily Forecast Email!

Thanks for signing up!

Be on the lookout for a verification email in your inbox.

You'll start receiving the daily forecast at 8 AM.

×

10-Day Weather Forecast

Almanac

Astronomy

Feb. 25, 2017 Rise Set
Actual Time
Civil Twilight
Nautical Twilight
Astronomical Twilight
Moon
Length of Visible Light
Length of Day
Tomorrow will be .
, % of the Moon is Illuminated

Today's Extremes

State Highs State Lows

Community

WunderPhotos

Upload Photos

1,962,540 photos uploaded!

WunderBlog® & News

Nearby

Air Quality

  Air Quality AQ Index Pollutant
Not available.

Snow Depth

Station Depth Elevation

Earthquake Activity

City Distance Mag. Time & Date
Minimum magnitude displayed is 2.5.

Coastal Water Temperatures

Place Temperature

Stations

Nearby Weather Stations

Station Location Temp. Windchill Dew Point Humidity Wind Precip. Elev Updated Type
                   

Watches & Warnings

There are currently no watches in effect.